Time;durP1;ratioP1;P1;durP2;ratioP2;P2;SDS_P1;SDS_P2;PMS_P1;PMS_P2;Temp;Humidity;BMP_temperature;BMP_pressure;BME280_temperature;BME280_humidity;BME280_pressure;Samples;Min_cycle;Max_cycle;Signal;HPM_P1;HPM_P2
2022/01/18 00:01:50;;;;;;;;;;;7.80;1.00;;;;;;5103126;28;19915;-80
2022/01/18 00:04:15;;;;;;;;;;;7.80;1.00;;;;;;5093851;28;19912;-81
2022/01/18 00:06:44;;;;;;;;;;;7.80;1.00;;;;;;5124263;28;20335;-80
2022/01/18 00:09:10;;;;;;;;;;;7.80;1.00;;;;;;5115450;28;19951;-81
2022/01/18 00:11:43;;;;;;;;;;;7.80;1.00;;;;;;5118019;28;19919;-80
2022/01/18 00:14:22;;;;;;;;;;;7.70;1.00;;;;;;5108945;28;19911;-80
2022/01/18 00:17:03;;;;;;;;;;;7.70;1.00;;;;;;5120498;28;19933;-80
2022/01/18 00:19:29;;;;;;;;;;;7.70;1.00;;;;;;5111714;28;19916;-81
2022/01/18 00:24:26;;;;;;;;;;;7.70;1.00;;;;;;5122945;28;20289;-80
2022/01/18 00:26:52;;;;;;;;;;;7.70;1.00;;;;;;5104612;28;19911;-80
2022/01/18 00:29:20;;;;;;;;;;;7.70;1.00;;;;;;5115682;28;20502;-80
2022/01/18 00:34:22;;;;;;;;;;;7.70;1.00;;;;;;5113932;28;19912;-80
2022/01/18 00:39:13;;;;;;;;;;;7.70;1.00;;;;;;5117550;28;20364;-80
2022/01/18 00:41:39;;;;;;;;;;;7.70;1.00;;;;;;5096220;28;19912;-80
2022/01/18 00:44:05;;;;;;;;;;;7.70;1.00;;;;;;5114071;28;19923;-81
2022/01/18 00:46:31;;;;;;;;;;;7.70;1.00;;;;;;5097509;28;19939;-80
2022/01/18 00:49:00;;;;;;;;;;;7.70;1.00;;;;;;5114656;28;19924;-80
2022/01/18 00:51:25;;;;;;;;;;;7.70;1.00;;;;;;5091027;28;20414;-80
2022/01/18 00:53:51;;;;;;;;;;;7.70;1.00;;;;;;5119738;28;19912;-80
2022/01/18 00:58:43;;;;;;;;;;;7.70;1.00;;;;;;5120439;28;19923;-80
2022/01/18 01:01:09;;;;;;;;;;;7.70;1.00;;;;;;5108110;28;20269;-80
2022/01/18 01:03:35;;;;;;;;;;;7.70;1.00;;;;;;5109621;28;19912;-80
2022/01/18 01:06:01;;;;;;;;;;;7.60;1.00;;;;;;5103970;28;19919;-80
2022/01/18 01:08:26;;;;;;;;;;;7.70;1.00;;;;;;5094854;28;19946;-81
2022/01/18 01:10:52;;;;;;;;;;;7.70;1.00;;;;;;5100113;28;19922;-80
2022/01/18 01:13:17;;;;;;;;;;;7.70;1.00;;;;;;5119028;28;20291;-81
2022/01/18 01:34:57;;;;;;;;;;;7.80;1.00;;;;;;5114803;28;20053;-81
2022/01/18 01:43:09;;;;;;;;;;;7.80;1.00;;;;;;5106836;28;20382;-80
2022/01/18 01:45:35;;;;;;;;;;;7.90;1.00;;;;;;5116999;28;19918;-80
2022/01/18 01:48:01;;;;;;;;;;;7.80;1.00;;;;;;5097470;28;19918;-80
2022/01/18 01:50:39;;;;;;;;;;;7.90;1.00;;;;;;5097239;28;20355;-81
2022/01/18 01:53:05;;;;;;;;;;;7.80;1.00;;;;;;5098364;28;19947;-81
2022/01/18 01:55:30;;;;;;;;;;;7.80;1.00;;;;;;5095103;28;19915;-80
2022/01/18 01:57:56;;;;;;;;;;;7.80;1.00;;;;;;5093222;28;19915;-80
2022/01/18 02:00:21;;;;;;;;;;;7.80;1.00;;;;;;5119779;28;20306;-81
2022/01/18 02:02:47;;;;;;;;;;;7.80;1.00;;;;;;5096403;28;19941;-81
2022/01/18 02:05:12;;;;;;;;;;;7.80;1.00;;;;;;5097100;28;20467;-80
2022/01/18 02:07:38;;;;;;;;;;;7.80;1.00;;;;;;5094389;28;20387;-80
2022/01/18 02:10:04;;;;;;;;;;;7.80;1.00;;;;;;5102039;28;19916;-81
2022/01/18 02:12:30;;;;;;;;;;;7.80;1.00;;;;;;5100676;28;19958;-81
2022/01/18 02:14:59;;;;;;;;;;;7.80;1.00;;;;;;5100993;28;19908;-81
2022/01/18 02:22:53;;;;;;;;;;;7.80;1.00;;;;;;5109849;28;19966;-80
2022/01/18 02:25:19;;;;;;;;;;;7.80;1.00;;;;;;5097656;28;20325;-81
2022/01/18 02:27:44;;;;;;;;;;;7.80;1.00;;;;;;5093190;28;20218;-81
2022/01/18 02:30:10;;;;;;;;;;;7.80;1.00;;;;;;5108478;28;19908;-81
2022/01/18 02:32:36;;;;;;;;;;;7.70;1.00;;;;;;5118835;28;20006;-81
2022/01/18 02:35:01;;;;;;;;;;;7.70;1.00;;;;;;5119837;27;19912;-81
2022/01/18 02:37:27;;;;;;;;;;;7.70;1.00;;;;;;5120234;28;19982;-81
2022/01/18 02:39:52;;;;;;;;;;;7.70;1.00;;;;;;5111505;28;19931;-80
2022/01/18 02:42:29;;;;;;;;;;;7.70;1.00;;;;;;5105670;28;19958;-81
2022/01/18 02:44:55;;;;;;;;;;;7.70;1.00;;;;;;5089558;28;20421;-80
2022/01/18 02:47:21;;;;;;;;;;;7.80;1.00;;;;;;5091871;28;19912;-80
2022/01/18 02:49:47;;;;;;;;;;;7.80;1.00;;;;;;5100929;28;19972;-80
2022/01/18 02:52:13;;;;;;;;;;;7.80;1.00;;;;;;5093360;28;19916;-81
2022/01/18 02:54:39;;;;;;;;;;;7.80;1.00;;;;;;5114464;28;19947;-80
2022/01/18 02:57:10;;;;;;;;;;;7.80;1.00;;;;;;5092877;28;20261;-80
2022/01/18 02:59:45;;;;;;;;;;;7.80;1.00;;;;;;5116883;28;19922;-80
2022/01/18 03:05:03;;;;;;;;;;;7.80;1.00;;;;;;5121517;28;19918;-81
2022/01/18 03:07:29;;;;;;;;;;;7.80;1.00;;;;;;5113283;28;20415;-81
2022/01/18 03:09:54;;;;;;;;;;;7.90;1.00;;;;;;5121980;28;19912;-80
2022/01/18 03:12:20;;;;;;;;;;;7.90;1.00;;;;;;5114012;28;19916;-81
2022/01/18 03:14:45;;;;;;;;;;;7.80;1.00;;;;;;5102689;28;19973;-81
2022/01/18 03:17:11;;;;;;;;;;;7.80;1.00;;;;;;5101102;28;19977;-80
2022/01/18 03:19:36;;;;;;;;;;;7.80;1.00;;;;;;5097381;28;19912;-81
2022/01/18 03:22:03;;;;;;;;;;;7.80;1.00;;;;;;5093767;28;19915;-80
2022/01/18 03:29:38;;;;;;;;;;;7.80;1.00;;;;;;5116422;28;19923;-81
2022/01/18 03:32:04;;;;;;;;;;;7.80;1.00;;;;;;5102789;28;19912;-82
2022/01/18 03:34:29;;;;;;;;;;;7.80;1.00;;;;;;5100717;28;19926;-80
2022/01/18 03:36:55;;;;;;;;;;;7.80;1.00;;;;;;5122866;28;19912;-81
2022/01/18 03:39:20;;;;;;;;;;;7.80;1.00;;;;;;5120333;28;19918;-80
2022/01/18 03:41:53;;;;;;;;;;;7.70;1.00;;;;;;5128747;27;19912;-80
2022/01/18 03:44:19;;;;;;;;;;;7.70;1.00;;;;;;5103101;28;19951;-80
2022/01/18 03:46:45;;;;;;;;;;;7.70;1.00;;;;;;5093798;28;20329;-80
2022/01/18 03:49:10;;;;;;;;;;;7.70;1.00;;;;;;5091382;28;20011;-80
2022/01/18 03:51:36;;;;;;;;;;;7.60;1.00;;;;;;5120856;28;19951;-80
2022/01/18 03:54:01;;;;;;;;;;;7.60;1.00;;;;;;5094306;28;19912;-81
2022/01/18 03:56:27;;;;;;;;;;;7.60;1.00;;;;;;5116463;28;20002;-81
2022/01/18 03:58:53;;;;;;;;;;;7.60;1.00;;;;;;5099825;28;19916;-80
2022/01/18 04:01:18;;;;;;;;;;;7.60;1.00;;;;;;5113010;28;19911;-80
2022/01/18 04:03:44;;;;;;;;;;;7.60;1.00;;;;;;5094549;28;19919;-81
2022/01/18 04:06:09;;;;;;;;;;;7.60;1.00;;;;;;5096753;28;20366;-80
2022/01/18 04:08:35;;;;;;;;;;;7.60;1.00;;;;;;5114980;28;19912;-80
2022/01/18 04:11:00;;;;;;;;;;;7.60;1.00;;;;;;5100881;28;20363;-81
2022/01/18 04:13:25;;;;;;;;;;;7.60;1.00;;;;;;5113190;28;20002;-80
2022/01/18 04:15:51;;;;;;;;;;;7.60;1.00;;;;;;5102558;28;19912;-81
2022/01/18 04:18:48;;;;;;;;;;;7.60;1.00;;;;;;5127663;27;19923;-80
2022/01/18 04:29:09;;;;;;;;;;;7.60;1.00;;;;;;5110675;28;19916;-79
2022/01/18 04:31:35;;;;;;;;;;;7.60;1.00;;;;;;5083501;28;19908;-80
2022/01/18 04:34:01;;;;;;;;;;;7.60;1.00;;;;;;5093156;28;19912;-80
2022/01/18 04:36:27;;;;;;;;;;;7.50;1.00;;;;;;5101512;28;19912;-80
2022/01/18 04:38:53;;;;;;;;;;;7.50;1.00;;;;;;5109738;28;20391;-81
2022/01/18 04:41:25;;;;;;;;;;;7.50;1.00;;;;;;5118089;28;19912;-80
2022/01/18 04:49:14;;;;;;;;;;;7.50;1.00;;;;;;5112946;28;19919;-80
2022/01/18 04:51:40;;;;;;;;;;;7.50;1.00;;;;;;5103030;28;19912;-80
2022/01/18 04:54:08;;;;;;;;;;;7.50;1.00;;;;;;5120764;28;20282;-80
2022/01/18 04:59:00;;;;;;;;;;;7.60;1.00;;;;;;5114605;28;19973;-80
2022/01/18 05:01:26;;;;;;;;;;;7.60;1.00;;;;;;5089439;28;20379;-80
2022/01/18 05:03:52;;;;;;;;;;;7.60;1.00;;;;;;5113775;28;19926;-81
2022/01/18 05:06:18;;;;;;;;;;;7.60;1.00;;;;;;5108733;28;19912;-80
2022/01/18 05:08:43;;;;;;;;;;;7.60;1.00;;;;;;5105891;28;19912;-81
2022/01/18 05:11:12;;;;;;;;;;;7.60;1.00;;;;;;5116101;28;20532;-80
2022/01/18 05:21:26;;;;;;;;;;;7.40;1.00;;;;;;5108919;28;20402;-81
2022/01/18 05:23:52;;;;;;;;;;;7.40;1.00;;;;;;5111172;28;19908;-80
2022/01/18 05:26:17;;;;;;;;;;;7.30;1.00;;;;;;5105917;28;20348;-80
2022/01/18 05:28:43;;;;;;;;;;;7.30;1.00;;;;;;5090110;28;19922;-80
2022/01/18 05:31:08;;;;;;;;;;;7.30;1.00;;;;;;5105200;28;19924;-80
2022/01/18 05:33:34;;;;;;;;;;;7.30;1.00;;;;;;5095920;28;19979;-81
2022/01/18 05:35:59;;;;;;;;;;;7.30;1.00;;;;;;5104315;28;19920;-81
2022/01/18 05:38:25;;;;;;;;;;;7.30;1.00;;;;;;5107618;28;19927;-80
2022/01/18 05:40:50;;;;;;;;;;;7.20;1.00;;;;;;5086499;28;19912;-81
2022/01/18 05:43:16;;;;;;;;;;;7.20;1.00;;;;;;5110727;28;19930;-81
2022/01/18 05:45:42;;;;;;;;;;;7.20;1.00;;;;;;5101579;28;20467;-80
2022/01/18 05:48:07;;;;;;;;;;;7.20;1.00;;;;;;5109198;28;19919;-80
2022/01/18 05:50:33;;;;;;;;;;;7.20;1.00;;;;;;5118279;28;20320;-80
2022/01/18 05:52:58;;;;;;;;;;;7.20;1.00;;;;;;5097451;28;19918;-82
2022/01/18 05:55:24;;;;;;;;;;;7.20;1.00;;;;;;5098880;28;19971;-80
2022/01/18 05:57:49;;;;;;;;;;;7.20;1.00;;;;;;5091528;28;19916;-81
2022/01/18 06:00:23;;;;;;;;;;;7.20;1.00;;;;;;5099797;28;19977;-80
2022/01/18 06:08:08;;;;;;;;;;;7.20;1.00;;;;;;5115147;28;20433;-80
2022/01/18 06:10:34;;;;;;;;;;;7.20;1.00;;;;;;5090254;28;19916;-80
2022/01/18 06:13:02;;;;;;;;;;;7.30;1.00;;;;;;5118152;28;19931;-81
2022/01/18 06:15:27;;;;;;;;;;;7.30;1.00;;;;;;5100899;28;19912;-80
2022/01/18 06:17:53;;;;;;;;;;;7.30;1.00;;;;;;5100887;28;19919;-80
2022/01/18 06:20:18;;;;;;;;;;;7.30;1.00;;;;;;5119340;28;19915;-80
2022/01/18 06:22:44;;;;;;;;;;;7.30;1.00;;;;;;5116238;28;20610;-80
2022/01/18 06:25:10;;;;;;;;;;;7.30;1.00;;;;;;5106774;28;19912;-81
2022/01/18 06:27:35;;;;;;;;;;;7.30;1.00;;;;;;5097740;28;19908;-80
2022/01/18 06:30:01;;;;;;;;;;;7.30;1.00;;;;;;5113806;28;19912;-81
2022/01/18 06:32:27;;;;;;;;;;;7.20;1.00;;;;;;5080867;28;20319;-80
2022/01/18 06:34:52;;;;;;;;;;;7.20;1.00;;;;;;5097253;28;20424;-80
2022/01/18 06:37:19;;;;;;;;;;;7.20;1.00;;;;;;5115799;28;19916;-80
2022/01/18 06:39:44;;;;;;;;;;;7.20;1.00;;;;;;5118037;28;20295;-80
2022/01/18 06:42:14;;;;;;;;;;;7.10;1.00;;;;;;5105046;28;19971;-81
2022/01/18 06:44:40;;;;;;;;;;;7.10;1.00;;;;;;5106927;28;19918;-81
2022/01/18 06:47:05;;;;;;;;;;;7.10;1.00;;;;;;5098773;28;20002;-80
2022/01/18 06:49:31;;;;;;;;;;;7.00;1.00;;;;;;5098332;28;19937;-80
2022/01/18 06:51:57;;;;;;;;;;;7.10;1.00;;;;;;5100837;28;19947;-80
2022/01/18 06:54:22;;;;;;;;;;;7.00;1.00;;;;;;5099078;28;20413;-80
2022/01/18 06:56:49;;;;;;;;;;;7.00;1.00;;;;;;5099094;28;20007;-81
2022/01/18 06:59:16;;;;;;;;;;;7.00;1.00;;;;;;5095221;28;20369;-80
2022/01/18 07:01:41;;;;;;;;;;;7.00;1.00;;;;;;5115315;28;19911;-81
2022/01/18 07:04:06;;;;;;;;;;;7.00;1.00;;;;;;5104310;28;19973;-82
2022/01/18 07:06:33;;;;;;;;;;;7.00;1.00;;;;;;5109619;28;19951;-81
2022/01/18 07:08:58;;;;;;;;;;;7.10;1.00;;;;;;5097099;28;20292;-82
2022/01/18 07:11:24;;;;;;;;;;;7.20;1.00;;;;;;5107595;28;19916;-82
2022/01/18 07:13:49;;;;;;;;;;;7.30;1.00;;;;;;5105516;28;19980;-82
2022/01/18 07:16:15;;;;;;;;;;;7.30;1.00;;;;;;5102237;28;19912;-82
2022/01/18 07:18:40;;;;;;;;;;;7.40;1.00;;;;;;5104342;28;19962;-82
2022/01/18 07:21:06;;;;;;;;;;;7.40;1.00;;;;;;5127541;28;19911;-82
2022/01/18 07:23:31;;;;;;;;;;;7.40;1.00;;;;;;5129931;28;19934;-82
2022/01/18 07:25:57;;;;;;;;;;;7.50;1.00;;;;;;5117876;28;20006;-82
2022/01/18 07:28:22;;;;;;;;;;;7.40;1.00;;;;;;5135437;28;19912;-81
2022/01/18 07:30:48;;;;;;;;;;;7.40;1.00;;;;;;5099641;28;19919;-81
2022/01/18 07:33:15;;;;;;;;;;;7.40;1.00;;;;;;5105071;28;19912;-81
2022/01/18 07:35:41;;;;;;;;;;;7.30;1.00;;;;;;5114778;28;19939;-82
2022/01/18 07:38:07;;;;;;;;;;;7.30;1.00;;;;;;5121954;28;19951;-80
2022/01/18 07:40:33;;;;;;;;;;;7.40;1.00;;;;;;5106465;28;19907;-81
2022/01/18 07:43:01;;;;;;;;;;;7.40;1.00;;;;;;5105871;28;20058;-82
2022/01/18 07:45:27;;;;;;;;;;;7.40;1.00;;;;;;5106129;28;19918;-81
2022/01/18 07:47:53;;;;;;;;;;;7.50;1.00;;;;;;5102387;28;19912;-81
2022/01/18 07:50:18;;;;;;;;;;;7.50;1.00;;;;;;5128210;28;19912;-81
2022/01/18 07:52:44;;;;;;;;;;;7.50;1.00;;;;;;5128042;28;19912;-81
2022/01/18 07:55:09;;;;;;;;;;;7.60;1.00;;;;;;5132980;28;19922;-82
2022/01/18 07:57:37;;;;;;;;;;;7.60;1.00;;;;;;5119207;28;19927;-81
2022/01/18 08:00:03;;;;;;;;;;;7.70;1.00;;;;;;5119595;28;19916;-81
2022/01/18 08:02:31;;;;;;;;;;;7.70;1.00;;;;;;5118684;28;19912;-82
2022/01/18 08:04:57;;;;;;;;;;;7.70;1.00;;;;;;5108073;28;20113;-82
2022/01/18 08:07:22;;;;;;;;;;;7.80;1.00;;;;;;5120706;27;19979;-81
2022/01/18 08:09:48;;;;;;;;;;;7.80;1.00;;;;;;5108305;28;19920;-82
2022/01/18 08:12:14;;;;;;;;;;;7.80;1.00;;;;;;5111408;28;19962;-81
2022/01/18 08:14:45;;;;;;;;;;;7.80;1.00;;;;;;5129740;27;19983;-81
2022/01/18 08:17:10;;;;;;;;;;;7.80;1.00;;;;;;5128090;28;19912;-81
2022/01/18 08:19:36;;;;;;;;;;;7.80;1.00;;;;;;5108095;28;19927;-81
2022/01/18 08:22:02;;;;;;;;;;;7.80;1.00;;;;;;5108205;28;19912;-81
2022/01/18 08:24:28;;;;;;;;;;;7.80;1.00;;;;;;5123574;27;19912;-81
2022/01/18 08:26:54;;;;;;;;;;;7.90;1.00;;;;;;5125424;28;19912;-82
2022/01/18 08:29:19;;;;;;;;;;;7.90;1.00;;;;;;5111582;28;19928;-81
2022/01/18 08:31:45;;;;;;;;;;;8.00;1.00;;;;;;5108278;28;19951;-82
2022/01/18 08:34:11;;;;;;;;;;;8.00;1.00;;;;;;5125911;28;19920;-81
2022/01/18 08:36:37;;;;;;;;;;;8.10;1.00;;;;;;5106068;28;21297;-82
2022/01/18 08:39:02;;;;;;;;;;;8.10;1.00;;;;;;5111411;28;19916;-82
2022/01/18 08:41:28;;;;;;;;;;;8.10;1.00;;;;;;5111336;28;19918;-81
2022/01/18 08:43:53;;;;;;;;;;;8.20;1.00;;;;;;5113064;28;19919;-82
2022/01/18 08:46:20;;;;;;;;;;;8.30;1.00;;;;;;5139515;27;19912;-82
2022/01/18 08:48:45;;;;;;;;;;;8.30;1.00;;;;;;5109213;28;19943;-81
2022/01/18 08:51:11;;;;;;;;;;;8.40;1.00;;;;;;5122999;28;19912;-81
2022/01/18 08:53:37;;;;;;;;;;;8.40;1.00;;;;;;5105281;28;19911;-81
2022/01/18 08:56:03;;;;;;;;;;;8.40;1.00;;;;;;5107265;28;19919;-81
2022/01/18 08:58:29;;;;;;;;;;;8.40;1.00;;;;;;5130116;28;19931;-81
2022/01/18 09:00:54;;;;;;;;;;;8.40;1.00;;;;;;5107980;28;20011;-80
2022/01/18 09:03:20;;;;;;;;;;;8.40;1.00;;;;;;5109633;28;19912;-81
2022/01/18 09:05:46;;;;;;;;;;;8.40;1.00;;;;;;5095050;28;19923;-81
2022/01/18 09:08:13;;;;;;;;;;;8.50;1.00;;;;;;5100187;28;20364;-81
2022/01/18 09:10:39;;;;;;;;;;;8.50;1.00;;;;;;5103775;28;19916;-81
2022/01/18 09:13:05;;;;;;;;;;;8.50;1.00;;;;;;5116463;28;19926;-81
2022/01/18 09:15:30;;;;;;;;;;;8.60;1.00;;;;;;5128516;28;19999;-82
2022/01/18 09:17:56;;;;;;;;;;;8.60;1.00;;;;;;5112928;28;20000;-81
2022/01/18 09:20:23;;;;;;;;;;;8.70;1.00;;;;;;5122530;27;19911;-82
2022/01/18 09:22:49;;;;;;;;;;;8.70;1.00;;;;;;5105465;28;19947;-81
2022/01/18 09:25:24;;;;;;;;;;;8.80;1.00;;;;;;5102694;28;19912;-81
2022/01/18 09:27:50;;;;;;;;;;;8.90;99.90;;;;;;5086322;28;19916;-81
2022/01/18 09:30:15;;;;;;;;;;;8.80;99.90;;;;;;5101475;28;19919;-81
2022/01/18 09:32:44;;;;;;;;;;;8.90;99.90;;;;;;5097006;28;19934;-81
2022/01/18 09:35:11;;;;;;;;;;;8.90;99.90;;;;;;5100126;28;19912;-81
2022/01/18 09:37:36;;;;;;;;;;;9.00;99.90;;;;;;5116135;28;19922;-81
2022/01/18 09:40:02;;;;;;;;;;;8.90;99.90;;;;;;5115892;28;19940;-81
2022/01/18 09:42:33;;;;;;;;;;;8.90;99.90;;;;;;5103085;28;20352;-81
2022/01/18 09:45:11;;;;;;;;;;;8.90;99.90;;;;;;5116523;28;19926;-81
2022/01/18 09:47:37;;;;;;;;;;;9.10;99.90;;;;;;5096598;28;19916;-81
2022/01/18 09:50:04;;;;;;;;;;;9.30;99.90;;;;;;5110350;28;19915;-81
2022/01/18 09:52:30;;;;;;;;;;;9.40;99.90;;;;;;5102694;28;19933;-81
2022/01/18 09:54:55;;;;;;;;;;;9.50;99.90;;;;;;5103706;28;19912;-81
2022/01/18 09:57:21;;;;;;;;;;;9.70;99.90;;;;;;5099941;28;19912;-81
2022/01/18 09:59:47;;;;;;;;;;;9.70;99.90;;;;;;5102904;28;19912;-82
2022/01/18 10:02:12;;;;;;;;;;;9.60;99.90;;;;;;5115890;27;19926;-81
2022/01/18 10:04:39;;;;;;;;;;;9.70;96.70;;;;;;5106828;28;19934;-82
2022/01/18 10:07:04;;;;;;;;;;;9.80;94.30;;;;;;5121155;28;19912;-81
2022/01/18 10:09:30;;;;;;;;;;;9.90;1.00;;;;;;5103415;28;19918;-82
2022/01/18 10:12:08;;;;;;;;;;;10.10;1.00;;;;;;5123284;28;19919;-81
2022/01/18 10:14:38;;;;;;;;;;;10.30;1.00;;;;;;5116872;28;19945;-82
2022/01/18 10:17:04;;;;;;;;;;;10.40;99.90;;;;;;5119839;28;19916;-82
2022/01/18 10:19:36;;;;;;;;;;;10.50;99.90;;;;;;5105793;28;19916;-82
2022/01/18 10:22:11;;;;;;;;;;;10.60;1.00;;;;;;5108957;28;19922;-82
2022/01/18 10:24:37;;;;;;;;;;;10.60;99.90;;;;;;5103940;28;19915;-81
2022/01/18 10:27:03;;;;;;;;;;;10.60;99.90;;;;;;5128215;28;19915;-82
2022/01/18 10:29:30;;;;;;;;;;;10.70;1.00;;;;;;5108831;28;19920;-82
2022/01/18 10:31:57;;;;;;;;;;;10.70;99.90;;;;;;5095111;28;19937;-81
2022/01/18 10:36:55;;;;;;;;;;;10.90;1.00;;;;;;5130247;28;19929;-82
2022/01/18 10:39:22;;;;;;;;;;;11.00;99.90;;;;;;5111571;28;19916;-81
2022/01/18 10:41:47;;;;;;;;;;;11.20;1.00;;;;;;5113353;28;19951;-81
2022/01/18 10:44:14;;;;;;;;;;;11.30;99.90;;;;;;5108321;28;19934;-81
2022/01/18 10:46:54;;;;;;;;;;;11.50;99.90;;;;;;5110050;28;20177;-81
2022/01/18 10:49:25;;;;;;;;;;;11.60;38.80;;;;;;5096298;28;19912;-81
2022/01/18 10:51:55;;;;;;;;;;;11.80;1.00;;;;;;5103732;28;19954;-81
2022/01/18 10:54:32;;;;;;;;;;;12.10;1.00;;;;;;5130024;28;19903;-82
2022/01/18 10:57:00;;;;;;;;;;;12.30;99.90;;;;;;5101943;28;19911;-81
2022/01/18 10:59:26;;;;;;;;;;;12.50;99.90;;;;;;5099430;28;19916;-82
2022/01/18 11:02:27;;;;;;;;;;;12.60;99.90;;;;;;5125463;28;19925;-82
2022/01/18 11:04:56;;;;;;;;;;;12.90;99.90;;;;;;5052162;28;19913;-82
2022/01/18 11:07:25;;;;;;;;;;;13.30;99.90;;;;;;5108332;28;19916;-81
2022/01/18 11:09:51;;;;;;;;;;;13.60;46.10;;;;;;5112685;28;19908;-81
2022/01/18 11:12:19;;;;;;;;;;;13.70;12.00;;;;;;5108493;28;19997;-81
2022/01/18 11:14:48;;;;;;;;;;;13.80;1.00;;;;;;5121831;28;19912;-83
2022/01/18 11:17:24;;;;;;;;;;;13.80;1.00;;;;;;5116832;28;19987;-82
2022/01/18 11:19:50;;;;;;;;;;;13.70;1.00;;;;;;5127173;28;19915;-80
2022/01/18 11:22:16;;;;;;;;;;;13.50;1.00;;;;;;5109492;28;19916;-82
2022/01/18 11:24:43;;;;;;;;;;;13.40;1.00;;;;;;5123553;27;19926;-81
2022/01/18 11:27:13;;;;;;;;;;;13.50;1.00;;;;;;5111345;28;19937;-82
2022/01/18 11:29:39;;;;;;;;;;;13.90;1.00;;;;;;5105318;28;20338;-82
2022/01/18 11:32:05;;;;;;;;;;;14.50;1.00;;;;;;5104488;28;19935;-81
2022/01/18 11:34:55;;;;;;;;;;;14.60;1.00;;;;;;5111953;28;19933;-82
2022/01/18 11:37:30;;;;;;;;;;;15.00;1.00;;;;;;5124830;28;19911;-82
2022/01/18 11:40:15;;;;;;;;;;;15.80;1.00;;;;;;5102842;28;19908;-81
2022/01/18 11:42:52;;;;;;;;;;;16.60;1.00;;;;;;5100869;28;19923;-82
2022/01/18 11:45:29;;;;;;;;;;;16.50;1.00;;;;;;5113475;27;19951;-82
2022/01/18 11:47:58;;;;;;;;;;;16.20;1.00;;;;;;5131306;27;19948;-82
2022/01/18 11:50:26;;;;;;;;;;;15.80;1.00;;;;;;5112097;28;19951;-82
2022/01/18 11:53:15;;;;;;;;;;;15.50;1.00;;;;;;5127343;27;19911;-82
2022/01/18 11:55:43;;;;;;;;;;;15.20;1.00;;;;;;5108294;28;19989;-82
2022/01/18 11:58:12;;;;;;;;;;;15.10;1.00;;;;;;5103589;28;19967;-82
2022/01/18 12:01:06;;;;;;;;;;;15.70;1.00;;;;;;5122829;28;19922;-83
2022/01/18 12:03:41;;;;;;;;;;;16.60;1.00;;;;;;5089925;28;19948;-83
2022/01/18 12:06:07;;;;;;;;;;;17.10;1.00;;;;;;5103717;28;19912;-83
2022/01/18 12:08:34;;;;;;;;;;;17.30;1.00;;;;;;5128389;28;19965;-81
2022/01/18 12:11:00;;;;;;;;;;;17.60;1.00;;;;;;5124089;28;19915;-81
2022/01/18 12:13:31;;;;;;;;;;;18.40;1.00;;;;;;5110778;28;19975;-82
2022/01/18 12:15:58;;;;;;;;;;;19.30;1.00;;;;;;5107594;28;19939;-82
2022/01/18 12:18:28;;;;;;;;;;;20.00;1.00;;;;;;5103128;28;19991;-82
2022/01/18 12:20:56;;;;;;;;;;;20.40;1.00;;;;;;5116744;28;19912;-82
2022/01/18 12:23:24;;;;;;;;;;;20.30;1.00;;;;;;5128078;28;19911;-81
2022/01/18 12:26:15;;;;;;;;;;;19.00;1.00;;;;;;5107199;28;19942;-81
2022/01/18 12:34:25;;;;;;;;;;;15.60;1.00;;;;;;5127263;28;19922;-81
2022/01/18 12:36:51;;;;;;;;;;;15.00;1.00;;;;;;5115025;28;19973;-82
2022/01/18 12:39:17;;;;;;;;;;;14.40;1.00;;;;;;5132135;28;19919;-81
2022/01/18 12:41:48;;;;;;;;;;;14.00;1.00;;;;;;5131265;28;19994;-82
2022/01/18 12:44:20;;;;;;;;;;;13.70;1.00;;;;;;5115442;28;19908;-82
2022/01/18 12:46:56;;;;;;;;;;;14.60;1.00;;;;;;5132213;28;20560;-82
2022/01/18 12:49:22;;;;;;;;;;;15.10;1.00;;;;;;5114176;28;19912;-82
2022/01/18 12:51:54;;;;;;;;;;;15.20;1.00;;;;;;5114610;28;20011;-82
2022/01/18 12:54:20;;;;;;;;;;;15.60;1.00;;;;;;5111704;28;19995;-81
2022/01/18 12:56:45;;;;;;;;;;;16.10;1.00;;;;;;5132251;27;19911;-83
2022/01/18 12:59:11;;;;;;;;;;;16.40;1.00;;;;;;5128181;27;19967;-82
2022/01/18 13:01:37;;;;;;;;;;;17.10;1.00;;;;;;5110370;28;19916;-82
2022/01/18 13:04:06;;;;;;;;;;;17.20;1.00;;;;;;5107585;28;19983;-83
2022/01/18 13:06:33;;;;;;;;;;;17.80;1.00;;;;;;5119409;28;19912;-81
2022/01/18 13:09:00;;;;;;;;;;;17.80;1.00;;;;;;5106762;28;19933;-81
2022/01/18 13:11:26;;;;;;;;;;;16.90;1.00;;;;;;5106059;28;19934;-81
2022/01/18 13:14:07;;;;;;;;;;;16.00;1.00;;;;;;5097192;28;19908;-81
2022/01/18 13:27:11;;;;;;;;;;;12.70;1.00;;;;;;5116144;27;19908;-80
2022/01/18 13:29:37;;;;;;;;;;;12.50;1.00;;;;;;5112983;27;20015;-80
2022/01/18 13:32:08;;;;;;;;;;;12.30;1.00;;;;;;5096859;28;20446;-79
2022/01/18 13:34:35;;;;;;;;;;;12.10;1.00;;;;;;5094641;28;19908;-80
2022/01/18 13:37:03;;;;;;;;;;;11.80;1.00;;;;;;5093727;28;19954;-80
2022/01/18 13:39:31;;;;;;;;;;;12.10;1.00;;;;;;5116999;28;19963;-81
2022/01/18 13:41:59;;;;;;;;;;;12.00;1.00;;;;;;5107388;28;20402;-80
2022/01/18 13:44:27;;;;;;;;;;;11.90;1.00;;;;;;5105999;28;20279;-80
2022/01/18 13:46:53;;;;;;;;;;;12.40;1.00;;;;;;5108196;28;19907;-81
2022/01/18 13:49:22;;;;;;;;;;;13.20;1.00;;;;;;5124582;28;19918;-81
2022/01/18 13:52:04;;;;;;;;;;;13.80;1.00;;;;;;5107334;28;19912;-81
2022/01/18 13:54:42;;;;;;;;;;;14.30;1.00;;;;;;5126097;28;19908;-81
2022/01/18 13:57:07;;;;;;;;;;;14.50;1.00;;;;;;5107286;27;19983;-81
2022/01/18 13:59:33;;;;;;;;;;;14.70;1.00;;;;;;5106211;28;19908;-80
2022/01/18 14:02:08;;;;;;;;;;;14.60;1.00;;;;;;5115369;27;20311;-80
2022/01/18 14:04:33;;;;;;;;;;;14.70;1.00;;;;;;5104378;28;19919;-81
2022/01/18 14:07:02;;;;;;;;;;;14.70;1.00;;;;;;5107911;28;20002;-81
2022/01/18 14:09:28;;;;;;;;;;;14.60;1.00;;;;;;5109030;28;19941;-81
2022/01/18 14:11:54;;;;;;;;;;;14.60;1.00;;;;;;5106826;28;19911;-81
2022/01/18 14:14:21;;;;;;;;;;;14.70;1.00;;;;;;5109068;28;19957;-81
2022/01/18 14:16:48;;;;;;;;;;;14.80;1.00;;;;;;5105620;28;19923;-80
2022/01/18 14:19:23;;;;;;;;;;;15.20;1.00;;;;;;5088813;28;19916;-80
2022/01/18 14:21:50;;;;;;;;;;;15.30;1.00;;;;;;5126579;27;19959;-81
2022/01/18 14:24:20;;;;;;;;;;;15.20;1.00;;;;;;5096120;28;19915;-81
2022/01/18 14:26:48;;;;;;;;;;;15.40;1.00;;;;;;5120576;28;19943;-81
2022/01/18 14:29:13;;;;;;;;;;;15.50;1.00;;;;;;5120633;28;19919;-81
2022/01/18 14:31:39;;;;;;;;;;;15.70;1.00;;;;;;5111200;28;19975;-81
2022/01/18 14:34:04;;;;;;;;;;;15.80;1.00;;;;;;5118046;28;19912;-81
2022/01/18 14:36:30;;;;;;;;;;;16.00;1.00;;;;;;5114001;28;19951;-81
2022/01/18 14:39:06;;;;;;;;;;;15.80;1.00;;;;;;5125032;28;19955;-81
2022/01/18 14:41:31;;;;;;;;;;;15.30;1.00;;;;;;5102088;28;19939;-81
2022/01/18 14:44:03;;;;;;;;;;;15.00;1.00;;;;;;5107693;28;19916;-81
2022/01/18 14:46:55;;;;;;;;;;;14.60;1.00;;;;;;5106892;28;19916;-81
2022/01/18 14:49:14;;;;;;;;;;;14.40;1.00;;;;;;5121179;28;19912;-81
2022/01/18 14:51:40;;;;;;;;;;;14.20;1.00;;;;;;5135843;28;19918;-81
2022/01/18 14:54:07;;;;;;;;;;;14.20;1.00;;;;;;5125753;28;19908;-81
2022/01/18 14:56:32;;;;;;;;;;;14.10;1.00;;;;;;5120581;28;19919;-81
2022/01/18 14:58:58;;;;;;;;;;;13.70;1.00;;;;;;5132475;28;19920;-81
2022/01/18 15:01:25;;;;;;;;;;;13.70;1.00;;;;;;5121937;28;19912;-81
2022/01/18 15:03:51;;;;;;;;;;;13.70;1.00;;;;;;5114302;28;19912;-81
2022/01/18 15:06:16;;;;;;;;;;;13.50;1.00;;;;;;5103989;28;19927;-81
2022/01/18 15:08:42;;;;;;;;;;;13.40;1.00;;;;;;5115302;28;19938;-81
2022/01/18 15:11:07;;;;;;;;;;;13.30;1.00;;;;;;5115383;27;19927;-82
2022/01/18 15:13:33;;;;;;;;;;;13.10;1.00;;;;;;5107447;28;19990;-82
2022/01/18 15:15:58;;;;;;;;;;;12.90;1.00;;;;;;5117372;28;19971;-82
2022/01/18 15:18:26;;;;;;;;;;;12.70;1.00;;;;;;5115897;28;19911;-82
2022/01/18 15:20:52;;;;;;;;;;;12.40;1.00;;;;;;5113220;28;19912;-82
2022/01/18 15:23:17;;;;;;;;;;;12.20;1.00;;;;;;5102998;28;19935;-81
2022/01/18 15:25:43;;;;;;;;;;;12.00;1.00;;;;;;5103367;28;19957;-82
2022/01/18 15:28:08;;;;;;;;;;;11.80;1.00;;;;;;5117873;27;20304;-82
2022/01/18 15:30:34;;;;;;;;;;;11.60;1.00;;;;;;5146437;27;19908;-82
2022/01/18 15:33:01;;;;;;;;;;;11.40;1.00;;;;;;5116537;28;19911;-81
2022/01/18 15:35:27;;;;;;;;;;;11.30;1.00;;;;;;5112240;28;19912;-81
2022/01/18 15:37:52;;;;;;;;;;;11.20;1.00;;;;;;5113774;28;19918;-82
2022/01/18 15:40:18;;;;;;;;;;;11.10;1.00;;;;;;5114415;28;19918;-81
2022/01/18 15:42:43;;;;;;;;;;;10.90;1.00;;;;;;5116156;28;19913;-81
2022/01/18 15:45:10;;;;;;;;;;;10.70;1.00;;;;;;5122680;27;19911;-81
2022/01/18 15:47:35;;;;;;;;;;;10.50;1.00;;;;;;5134273;27;19917;-81
2022/01/18 15:50:01;;;;;;;;;;;10.40;1.00;;;;;;5126050;28;20068;-81
2022/01/18 15:52:28;;;;;;;;;;;10.30;1.00;;;;;;5131876;28;19912;-81
2022/01/18 15:54:54;;;;;;;;;;;10.10;1.00;;;;;;5123299;28;19915;-81
2022/01/18 15:57:19;;;;;;;;;;;10.00;1.00;;;;;;5095259;28;19912;-81
2022/01/18 15:59:45;;;;;;;;;;;10.00;1.00;;;;;;5114851;28;19934;-81
2022/01/18 16:02:10;;;;;;;;;;;9.90;1.00;;;;;;5130778;28;19908;-81
2022/01/18 16:04:37;;;;;;;;;;;9.90;1.00;;;;;;5110292;28;19916;-81
2022/01/18 16:07:03;;;;;;;;;;;9.80;1.00;;;;;;5117552;28;19907;-81
2022/01/18 16:09:28;;;;;;;;;;;9.70;1.00;;;;;;5113681;28;19916;-81
2022/01/18 16:11:54;;;;;;;;;;;9.70;1.00;;;;;;5112583;28;19924;-80
2022/01/18 16:14:20;;;;;;;;;;;9.60;1.00;;;;;;5128246;28;20344;-80